sensor_id;sensor_type;location;lat;lon;timestamp;temperature;humidity
5956;DHT22;3004;48.080;11.600;2023-02-03T05:45:04;4.10;99.90
5956;DHT22;3004;48.080;11.600;2023-02-03T05:47:42;4.10;99.90
5956;DHT22;3004;48.080;11.600;2023-02-03T05:50:12;4.10;99.90
5956;DHT22;3004;48.080;11.600;2023-02-03T05:52:56;4.10;99.90
5956;DHT22;3004;48.080;11.600;2023-02-03T05:58:37;4.10;99.90
5956;DHT22;3004;48.080;11.600;2023-02-03T06:04:59;4.00;99.90
5956;DHT22;3004;48.080;11.600;2023-02-03T06:11:26;3.90;99.90
5956;DHT22;3004;48.080;11.600;2023-02-03T06:14:22;4.00;99.90
5956;DHT22;3004;48.080;11.600;2023-02-03T06:16:58;4.10;99.90
5956;DHT22;3004;48.080;11.600;2023-02-03T06:26:03;4.10;99.90
5956;DHT22;3004;48.080;11.600;2023-02-03T06:34:48;4.20;99.90
5956;DHT22;3004;48.080;11.600;2023-02-03T06:37:41;4.20;99.90
5956;DHT22;3004;48.080;11.600;2023-02-03T06:40:35;4.20;99.90
5956;DHT22;3004;48.080;11.600;2023-02-03T06:43:36;4.20;99.90
5956;DHT22;3004;48.080;11.600;2023-02-03T06:46:14;4.20;99.90
5956;DHT22;3004;48.080;11.600;2023-02-03T06:52:01;4.20;99.90
5956;DHT22;3004;48.080;11.600;2023-02-03T06:54:57;4.20;99.90
5956;DHT22;3004;48.080;11.600;2023-02-03T06:57:25;4.20;99.90
5956;DHT22;3004;48.080;11.600;2023-02-03T07:00:03;4.30;99.90
5956;DHT22;3004;48.080;11.600;2023-02-03T07:02:40;4.20;99.90
5956;DHT22;3004;48.080;11.600;2023-02-03T07:06:55;4.20;99.90
5956;DHT22;3004;48.080;11.600;2023-02-03T07:09:04;4.20;99.90
5956;DHT22;3004;48.080;11.600;2023-02-03T07:11:47;4.20;99.90
5956;DHT22;3004;48.080;11.600;2023-02-03T07:20:50;4.20;99.90
5956;DHT22;3004;48.080;11.600;2023-02-03T07:23:24;4.30;99.90
5956;DHT22;3004;48.080;11.600;2023-02-03T07:26:18;4.40;99.90
5956;DHT22;3004;48.080;11.600;2023-02-03T07:28:50;4.40;99.90
5956;DHT22;3004;48.080;11.600;2023-02-03T07:31:52;4.40;99.90
5956;DHT22;3004;48.080;11.600;2023-02-03T07:40:59;4.40;99.90
5956;DHT22;3004;48.080;11.600;2023-02-03T07:43:42;4.40;99.90
5956;DHT22;3004;48.080;11.600;2023-02-03T07:46:19;4.40;99.90
5956;DHT22;3004;48.080;11.600;2023-02-03T07:49:12;4.40;99.90
5956;DHT22;3004;48.080;11.600;2023-02-03T07:51:40;4.50;99.90
5956;DHT22;3004;48.080;11.600;2023-02-03T07:54:18;4.60;99.90
5956;DHT22;3004;48.080;11.600;2023-02-03T07:56:55;4.60;99.90
5956;DHT22;3004;48.080;11.600;2023-02-03T07:59:32;4.60;99.90
5956;DHT22;3004;48.080;11.600;2023-02-03T08:02:02;4.70;99.90
5956;DHT22;3004;48.080;11.600;2023-02-03T08:07:27;4.80;99.90
5956;DHT22;3004;48.080;11.600;2023-02-03T08:10:00;4.80;99.90
5956;DHT22;3004;48.080;11.600;2023-02-03T08:12:28;4.90;99.90
5956;DHT22;3004;48.080;11.600;2023-02-03T08:17:58;4.90;99.90
5956;DHT22;3004;48.080;11.600;2023-02-03T08:20:31;4.90;99.90
5956;DHT22;3004;48.080;11.600;2023-02-03T08:23:00;5.00;99.90
5956;DHT22;3004;48.080;11.600;2023-02-03T08:25:35;5.10;99.90
5956;DHT22;3004;48.080;11.600;2023-02-03T08:28:14;5.10;99.90
5956;DHT22;3004;48.080;11.600;2023-02-03T08:31:14;5.10;99.90
5956;DHT22;3004;48.080;11.600;2023-02-03T08:34:14;5.10;99.90
5956;DHT22;3004;48.080;11.600;2023-02-03T08:37:05;5.20;99.90
5956;DHT22;3004;48.080;11.600;2023-02-03T08:39:55;5.20;99.90
5956;DHT22;3004;48.080;11.600;2023-02-03T08:42:43;5.20;99.90
5956;DHT22;3004;48.080;11.600;2023-02-03T08:45:12;5.20;99.90
5956;DHT22;3004;48.080;11.600;2023-02-03T08:47:59;5.30;99.90
5956;DHT22;3004;48.080;11.600;2023-02-03T09:00:31;5.40;99.90
5956;DHT22;3004;48.080;11.600;2023-02-03T09:03:16;5.50;99.90
5956;DHT22;3004;48.080;11.600;2023-02-03T09:08:42;5.50;99.90
5956;DHT22;3004;48.080;11.600;2023-02-03T09:11:29;5.50;99.90
5956;DHT22;3004;48.080;11.600;2023-02-03T09:13:58;5.50;99.90
5956;DHT22;3004;48.080;11.600;2023-02-03T09:19:31;5.50;99.90
5956;DHT22;3004;48.080;11.600;2023-02-03T09:22:18;5.50;99.90
5956;DHT22;3004;48.080;11.600;2023-02-03T09:24:51;5.60;99.90
5956;DHT22;3004;48.080;11.600;2023-02-03T09:27:21;5.60;99.90
5956;DHT22;3004;48.080;11.600;2023-02-03T09:29:59;5.60;99.90
5956;DHT22;3004;48.080;11.600;2023-02-03T09:32:40;5.60;99.90
5956;DHT22;3004;48.080;11.600;2023-02-03T09:35:57;5.60;99.90
5956;DHT22;3004;48.080;11.600;2023-02-03T09:38:27;5.70;99.90
5956;DHT22;3004;48.080;11.600;2023-02-03T09:41:31;5.70;99.90
5956;DHT22;3004;48.080;11.600;2023-02-03T09:44:28;5.60;99.90
5956;DHT22;3004;48.080;11.600;2023-02-03T09:47:35;5.70;99.90
5956;DHT22;3004;48.080;11.600;2023-02-03T09:50:11;5.80;99.90
5956;DHT22;3004;48.080;11.600;2023-02-03T09:53:11;5.90;99.90
5956;DHT22;3004;48.080;11.600;2023-02-03T09:55:47;5.90;99.90
5956;DHT22;3004;48.080;11.600;2023-02-03T09:58:31;5.90;99.90
5956;DHT22;3004;48.080;11.600;2023-02-03T10:01:00;5.90;99.90
5956;DHT22;3004;48.080;11.600;2023-02-03T10:03:34;6.00;99.90
5956;DHT22;3004;48.080;11.600;2023-02-03T10:06:25;6.10;99.90
5956;DHT22;3004;48.080;11.600;2023-02-03T10:09:21;6.20;99.90
5956;DHT22;3004;48.080;11.600;2023-02-03T10:12:19;6.10;99.90
5956;DHT22;3004;48.080;11.600;2023-02-03T10:18:08;6.10;99.90
5956;DHT22;3004;48.080;11.600;2023-02-03T10:20:48;6.20;99.90
5956;DHT22;3004;48.080;11.600;2023-02-03T10:23:35;6.20;99.90
5956;DHT22;3004;48.080;11.600;2023-02-03T10:26:26;6.20;99.90
5956;DHT22;3004;48.080;11.600;2023-02-03T10:29:28;6.10;99.90
5956;DHT22;3004;48.080;11.600;2023-02-03T10:32:00;6.20;99.90
5956;DHT22;3004;48.080;11.600;2023-02-03T10:34:48;6.20;99.90
5956;DHT22;3004;48.080;11.600;2023-02-03T10:43:52;6.20;99.90
5956;DHT22;3004;48.080;11.600;2023-02-03T10:46:44;6.20;99.90
5956;DHT22;3004;48.080;11.600;2023-02-03T10:49:16;6.20;99.90
5956;DHT22;3004;48.080;11.600;2023-02-03T10:52:01;6.30;99.90
5956;DHT22;3004;48.080;11.600;2023-02-03T10:54:46;6.30;99.90
5956;DHT22;3004;48.080;11.600;2023-02-03T10:57:30;6.30;99.90
5956;DHT22;3004;48.080;11.600;2023-02-03T11:00:20;6.40;99.90
5956;DHT22;3004;48.080;11.600;2023-02-03T11:03:01;6.40;99.90
5956;DHT22;3004;48.080;11.600;2023-02-03T11:16:08;6.40;99.90
5956;DHT22;3004;48.080;11.600;2023-02-03T11:19:48;6.40;99.90
5956;DHT22;3004;48.080;11.600;2023-02-03T11:25:54;6.50;99.90
5956;DHT22;3004;48.080;11.600;2023-02-03T11:28:35;6.50;99.90
5956;DHT22;3004;48.080;11.600;2023-02-03T11:37:27;6.60;99.90
5956;DHT22;3004;48.080;11.600;2023-02-03T11:41:54;6.60;99.90
5956;DHT22;3004;48.080;11.600;2023-02-03T11:44:44;6.70;99.90
5956;DHT22;3004;48.080;11.600;2023-02-03T11:47:16;6.60;99.90
5956;DHT22;3004;48.080;11.600;2023-02-03T11:53:15;6.80;99.90
5956;DHT22;3004;48.080;11.600;2023-02-03T11:56:19;6.90;99.90
5956;DHT22;3004;48.080;11.600;2023-02-03T12:02:12;6.80;99.90
5956;DHT22;3004;48.080;11.600;2023-02-03T12:05:18;7.00;99.90
5956;DHT22;3004;48.080;11.600;2023-02-03T12:08:17;7.00;99.90
5956;DHT22;3004;48.080;11.600;2023-02-03T12:11:27;7.00;99.90
5956;DHT22;3004;48.080;11.600;2023-02-03T12:14:46;6.90;99.90
5956;DHT22;3004;48.080;11.600;2023-02-03T12:17:45;6.90;99.90
5956;DHT22;3004;48.080;11.600;2023-02-03T12:20:26;6.80;99.90
5956;DHT22;3004;48.080;11.600;2023-02-03T12:23:06;6.80;99.90
5956;DHT22;3004;48.080;11.600;2023-02-03T12:28:51;6.90;99.90
5956;DHT22;3004;48.080;11.600;2023-02-03T12:31:47;6.80;99.90
5956;DHT22;3004;48.080;11.600;2023-02-03T12:34:33;6.80;99.90
5956;DHT22;3004;48.080;11.600;2023-02-03T12:37:09;6.70;99.90
5956;DHT22;3004;48.080;11.600;2023-02-03T12:39:44;6.70;99.90
5956;DHT22;3004;48.080;11.600;2023-02-03T12:42:19;6.70;99.90
5956;DHT22;3004;48.080;11.600;2023-02-03T12:44:54;6.70;99.90
5956;DHT22;3004;48.080;11.600;2023-02-03T12:47:42;6.60;99.90
5956;DHT22;3004;48.080;11.600;2023-02-03T12:50:38;6.70;99.90
5956;DHT22;3004;48.080;11.600;2023-02-03T12:53:17;6.70;99.90
5956;DHT22;3004;48.080;11.600;2023-02-03T12:56:03;6.70;99.90
5956;DHT22;3004;48.080;11.600;2023-02-03T12:58:44;6.60;99.90
5956;DHT22;3004;48.080;11.600;2023-02-03T13:01:34;6.60;99.90
5956;DHT22;3004;48.080;11.600;2023-02-03T13:04:24;6.60;99.90
5956;DHT22;3004;48.080;11.600;2023-02-03T13:07:16;6.70;99.90
5956;DHT22;3004;48.080;11.600;2023-02-03T13:10:20;6.70;99.90
5956;DHT22;3004;48.080;11.600;2023-02-03T13:12:56;6.70;99.90
5956;DHT22;3004;48.080;11.600;2023-02-03T13:15:42;6.70;99.90
5956;DHT22;3004;48.080;11.600;2023-02-03T13:18:26;6.60;99.90
5956;DHT22;3004;48.080;11.600;2023-02-03T13:21:12;6.60;99.90
5956;DHT22;3004;48.080;11.600;2023-02-03T13:23:53;6.60;99.90
5956;DHT22;3004;48.080;11.600;2023-02-03T13:35:08;6.50;99.90
5956;DHT22;3004;48.080;11.600;2023-02-03T13:41:21;6.50;99.90
5956;DHT22;3004;48.080;11.600;2023-02-03T13:43:56;6.40;99.90
5956;DHT22;3004;48.080;11.600;2023-02-03T13:46:30;6.50;99.90
5956;DHT22;3004;48.080;11.600;2023-02-03T13:49:02;6.50;99.90
5956;DHT22;3004;48.080;11.600;2023-02-03T13:51:36;6.50;99.90
5956;DHT22;3004;48.080;11.600;2023-02-03T13:54:28;6.50;99.90
5956;DHT22;3004;48.080;11.600;2023-02-03T13:57:15;6.50;99.90
5956;DHT22;3004;48.080;11.600;2023-02-03T14:03:40;6.40;99.90
5956;DHT22;3004;48.080;11.600;2023-02-03T14:09:22;6.40;99.90
5956;DHT22;3004;48.080;11.600;2023-02-03T14:12:33;6.30;99.90
5956;DHT22;3004;48.080;11.600;2023-02-03T14:18:35;6.30;99.90
5956;DHT22;3004;48.080;11.600;2023-02-03T14:22:25;6.30;99.90
5956;DHT22;3004;48.080;11.600;2023-02-03T14:25:04;6.30;99.90
5956;DHT22;3004;48.080;11.600;2023-02-03T14:27:32;6.30;99.90
5956;DHT22;3004;48.080;11.600;2023-02-03T14:30:12;6.30;99.90
5956;DHT22;3004;48.080;11.600;2023-02-03T14:32:56;6.30;99.90
5956;DHT22;3004;48.080;11.600;2023-02-03T14:35:41;6.30;99.90
5956;DHT22;3004;48.080;11.600;2023-02-03T14:38:32;6.20;99.90
5956;DHT22;3004;48.080;11.600;2023-02-03T14:41:05;6.30;99.90
5956;DHT22;3004;48.080;11.600;2023-02-03T14:43:41;6.30;99.90
5956;DHT22;3004;48.080;11.600;2023-02-03T14:49:21;6.20;99.90
5956;DHT22;3004;48.080;11.600;2023-02-03T14:52:16;6.30;99.90
5956;DHT22;3004;48.080;11.600;2023-02-03T14:55:21;6.20;99.90
5956;DHT22;3004;48.080;11.600;2023-02-03T14:58:13;6.20;99.90
5956;DHT22;3004;48.080;11.600;2023-02-03T15:01:10;6.20;99.90
5956;DHT22;3004;48.080;11.600;2023-02-03T15:04:23;6.20;99.90
5956;DHT22;3004;48.080;11.600;2023-02-03T15:07:01;6.10;99.90
5956;DHT22;3004;48.080;11.600;2023-02-03T15:09:32;6.20;99.90
5956;DHT22;3004;48.080;11.600;2023-02-03T15:12:15;6.10;99.90
5956;DHT22;3004;48.080;11.600;2023-02-03T15:15:14;6.20;99.90
5956;DHT22;3004;48.080;11.600;2023-02-03T15:17:53;6.10;99.90
5956;DHT22;3004;48.080;11.600;2023-02-03T15:20:38;6.20;99.90
5956;DHT22;3004;48.080;11.600;2023-02-03T15:23:24;6.10;99.90
5956;DHT22;3004;48.080;11.600;2023-02-03T15:26:18;6.20;99.90
5956;DHT22;3004;48.080;11.600;2023-02-03T15:28:58;6.20;99.90
5956;DHT22;3004;48.080;11.600;2023-02-03T15:34:44;6.10;99.90
5956;DHT22;3004;48.080;11.600;2023-02-03T15:37:22;6.10;99.90
5956;DHT22;3004;48.080;11.600;2023-02-03T15:40:01;6.10;99.90
5956;DHT22;3004;48.080;11.600;2023-02-03T15:42:38;6.10;99.90
5956;DHT22;3004;48.080;11.600;2023-02-03T15:45:27;6.10;99.90
5956;DHT22;3004;48.080;11.600;2023-02-03T15:48:12;6.10;99.90
5956;DHT22;3004;48.080;11.600;2023-02-03T15:51:10;6.10;99.90
5956;DHT22;3004;48.080;11.600;2023-02-03T15:53:55;6.10;99.90
5956;DHT22;3004;48.080;11.600;2023-02-03T15:56:31;6.10;99.90
5956;DHT22;3004;48.080;11.600;2023-02-03T15:59:18;6.10;99.90
5956;DHT22;3004;48.080;11.600;2023-02-03T16:02:13;6.20;99.90
5956;DHT22;3004;48.080;11.600;2023-02-03T16:04:54;6.10;99.90
5956;DHT22;3004;48.080;11.600;2023-02-03T16:08:24;6.10;99.90
5956;DHT22;3004;48.080;11.600;2023-02-03T16:10:57;6.10;99.90
5956;DHT22;3004;48.080;11.600;2023-02-03T16:13:34;6.10;99.90
5956;DHT22;3004;48.080;11.600;2023-02-03T16:16:19;6.10;99.90
5956;DHT22;3004;48.080;11.600;2023-02-03T16:19:26;6.10;99.90
5956;DHT22;3004;48.080;11.600;2023-02-03T16:21:52;6.10;99.90
5956;DHT22;3004;48.080;11.600;2023-02-03T16:24:36;6.10;99.90
5956;DHT22;3004;48.080;11.600;2023-02-03T16:27:19;6.10;99.90
5956;DHT22;3004;48.080;11.600;2023-02-03T16:30:14;6.00;99.90
5956;DHT22;3004;48.080;11.600;2023-02-03T16:33:09;6.10;99.90
5956;DHT22;3004;48.080;11.600;2023-02-03T16:38:12;6.00;99.90
5956;DHT22;3004;48.080;11.600;2023-02-03T16:39:10;6.00;99.90
5956;DHT22;3004;48.080;11.600;2023-02-03T16:41:58;6.10;99.90
5956;DHT22;3004;48.080;11.600;2023-02-03T16:44:43;6.00;99.90
5956;DHT22;3004;48.080;11.600;2023-02-03T16:47:29;5.90;99.90
5956;DHT22;3004;48.080;11.600;2023-02-03T16:50:18;5.90;99.90
5956;DHT22;3004;48.080;11.600;2023-02-03T16:53:20;5.90;99.90
5956;DHT22;3004;48.080;11.600;2023-02-03T16:56:06;5.90;99.90
5956;DHT22;3004;48.080;11.600;2023-02-03T16:58:59;5.80;99.90
5956;DHT22;3004;48.080;11.600;2023-02-03T17:01:27;5.80;99.90
5956;DHT22;3004;48.080;11.600;2023-02-03T17:03:57;5.80;99.90
5956;DHT22;3004;48.080;11.600;2023-02-03T17:06:33;5.90;99.90
5956;DHT22;3004;48.080;11.600;2023-02-03T17:09:07;5.90;99.90
5956;DHT22;3004;48.080;11.600;2023-02-03T17:14:05;5.70;99.90
5956;DHT22;3004;48.080;11.600;2023-02-03T17:19:12;5.90;99.90
5956;DHT22;3004;48.080;11.600;2023-02-03T17:21:42;5.90;99.90
5956;DHT22;3004;48.080;11.600;2023-02-03T17:24:22;5.90;99.90
5956;DHT22;3004;48.080;11.600;2023-02-03T17:26:50;5.90;99.90
5956;DHT22;3004;48.080;11.600;2023-02-03T17:29:22;5.80;99.90
5956;DHT22;3004;48.080;11.600;2023-02-03T17:32:07;5.80;99.90
5956;DHT22;3004;48.080;11.600;2023-02-03T17:34:37;5.80;99.90
5956;DHT22;3004;48.080;11.600;2023-02-03T17:37:12;5.80;99.90
5956;DHT22;3004;48.080;11.600;2023-02-03T17:39:50;5.90;99.90
5956;DHT22;3004;48.080;11.600;2023-02-03T17:42:23;5.90;99.90
5956;DHT22;3004;48.080;11.600;2023-02-03T17:44:58;5.80;99.90
5956;DHT22;3004;48.080;11.600;2023-02-03T17:47:25;5.80;99.90
5956;DHT22;3004;48.080;11.600;2023-02-03T17:49:58;5.80;99.90
5956;DHT22;3004;48.080;11.600;2023-02-03T17:52:47;5.80;99.90
5956;DHT22;3004;48.080;11.600;2023-02-03T17:55:17;5.90;99.90
5956;DHT22;3004;48.080;11.600;2023-02-03T17:57:47;5.80;99.90
5956;DHT22;3004;48.080;11.600;2023-02-03T18:00:16;5.70;99.90
5956;DHT22;3004;48.080;11.600;2023-02-03T18:02:43;5.60;99.90
5956;DHT22;3004;48.080;11.600;2023-02-03T18:05:14;5.60;99.90
5956;DHT22;3004;48.080;11.600;2023-02-03T18:07:44;5.50;99.90
5956;DHT22;3004;48.080;11.600;2023-02-03T18:10:14;5.50;99.90
5956;DHT22;3004;48.080;11.600;2023-02-03T18:12:41;5.40;99.90
5956;DHT22;3004;48.080;11.600;2023-02-03T18:15:17;5.50;99.90
5956;DHT22;3004;48.080;11.600;2023-02-03T18:17:44;5.60;99.90
5956;DHT22;3004;48.080;11.600;2023-02-03T18:20:34;5.60;99.90
5956;DHT22;3004;48.080;11.600;2023-02-03T18:23:12;5.50;99.90
5956;DHT22;3004;48.080;11.600;2023-02-03T18:25:51;5.50;99.90
5956;DHT22;3004;48.080;11.600;2023-02-03T18:28:29;5.50;99.90
5956;DHT22;3004;48.080;11.600;2023-02-03T18:31:21;5.50;99.90
5956;DHT22;3004;48.080;11.600;2023-02-03T18:33:50;5.40;99.90
5956;DHT22;3004;48.080;11.600;2023-02-03T18:36:28;5.40;99.90
5956;DHT22;3004;48.080;11.600;2023-02-03T18:39:06;5.40;99.90
5956;DHT22;3004;48.080;11.600;2023-02-03T18:41:46;5.30;99.90
5956;DHT22;3004;48.080;11.600;2023-02-03T18:44:15;5.30;99.90
5956;DHT22;3004;48.080;11.600;2023-02-03T18:46:47;5.40;99.90
5956;DHT22;3004;48.080;11.600;2023-02-03T18:49:22;5.30;99.90
5956;DHT22;3004;48.080;11.600;2023-02-03T18:51:53;5.40;99.90
5956;DHT22;3004;48.080;11.600;2023-02-03T18:54:33;5.40;99.90
5956;DHT22;3004;48.080;11.600;2023-02-03T18:57:19;5.50;99.90
5956;DHT22;3004;48.080;11.600;2023-02-03T19:00:11;5.30;99.90
5956;DHT22;3004;48.080;11.600;2023-02-03T19:03:07;5.40;99.90
5956;DHT22;3004;48.080;11.600;2023-02-03T19:05:38;5.40;99.90
5956;DHT22;3004;48.080;11.600;2023-02-03T19:08:28;5.30;99.90
5956;DHT22;3004;48.080;11.600;2023-02-03T19:11:09;5.20;99.90
5956;DHT22;3004;48.080;11.600;2023-02-03T19:13:36;5.10;99.90
5956;DHT22;3004;48.080;11.600;2023-02-03T19:16:12;5.00;99.90
5956;DHT22;3004;48.080;11.600;2023-02-03T19:19:04;4.80;99.90
5956;DHT22;3004;48.080;11.600;2023-02-03T19:21:39;4.70;99.90
5956;DHT22;3004;48.080;11.600;2023-02-03T19:25:01;4.80;99.90
5956;DHT22;3004;48.080;11.600;2023-02-03T19:27:38;4.70;99.90
5956;DHT22;3004;48.080;11.600;2023-02-03T19:30:21;4.70;99.90
5956;DHT22;3004;48.080;11.600;2023-02-03T19:33:24;4.70;99.90
5956;DHT22;3004;48.080;11.600;2023-02-03T19:36:24;4.70;99.90
5956;DHT22;3004;48.080;11.600;2023-02-03T19:39:24;4.60;99.90
5956;DHT22;3004;48.080;11.600;2023-02-03T19:41:56;4.50;99.90
5956;DHT22;3004;48.080;11.600;2023-02-03T19:44:23;4.60;99.90
5956;DHT22;3004;48.080;11.600;2023-02-03T19:46:56;4.60;99.90
5956;DHT22;3004;48.080;11.600;2023-02-03T19:49:24;4.60;99.90
5956;DHT22;3004;48.080;11.600;2023-02-03T19:52:08;4.60;99.90
5956;DHT22;3004;48.080;11.600;2023-02-03T19:54:37;4.60;99.90
5956;DHT22;3004;48.080;11.600;2023-02-03T19:57:17;4.60;99.90
5956;DHT22;3004;48.080;11.600;2023-02-03T19:59:44;4.50;99.90
5956;DHT22;3004;48.080;11.600;2023-02-03T20:02:21;4.50;99.90
5956;DHT22;3004;48.080;11.600;2023-02-03T20:04:59;3.60;99.90
5956;DHT22;3004;48.080;11.600;2023-02-03T20:07:27;4.50;99.90
5956;DHT22;3004;48.080;11.600;2023-02-03T20:10:13;4.60;99.90
5956;DHT22;3004;48.080;11.600;2023-02-03T20:13:18;4.60;99.90
5956;DHT22;3004;48.080;11.600;2023-02-03T20:15:38;4.50;99.90
5956;DHT22;3004;48.080;11.600;2023-02-03T20:18:11;4.50;99.90
5956;DHT22;3004;48.080;11.600;2023-02-03T20:20:42;4.50;99.90
5956;DHT22;3004;48.080;11.600;2023-02-03T20:23:17;4.50;99.90
5956;DHT22;3004;48.080;11.600;2023-02-03T20:26:05;4.50;99.90
5956;DHT22;3004;48.080;11.600;2023-02-03T20:28:37;4.50;99.90
5956;DHT22;3004;48.080;11.600;2023-02-03T20:31:12;4.40;99.90
5956;DHT22;3004;48.080;11.600;2023-02-03T20:36:13;4.40;99.90
5956;DHT22;3004;48.080;11.600;2023-02-03T20:38:56;4.40;99.90
5956;DHT22;3004;48.080;11.600;2023-02-03T20:41:27;4.50;99.90
5956;DHT22;3004;48.080;11.600;2023-02-03T20:43:58;4.40;99.90
5956;DHT22;3004;48.080;11.600;2023-02-03T20:46:34;4.40;99.90
5956;DHT22;3004;48.080;11.600;2023-02-03T20:49:07;4.40;99.90
5956;DHT22;3004;48.080;11.600;2023-02-03T20:51:53;4.40;99.90
5956;DHT22;3004;48.080;11.600;2023-02-03T20:54:39;4.40;99.90
5956;DHT22;3004;48.080;11.600;2023-02-03T20:57:12;4.40;99.90
5956;DHT22;3004;48.080;11.600;2023-02-03T20:59:42;4.50;99.90
5956;DHT22;3004;48.080;11.600;2023-02-03T21:02:17;4.50;99.90
5956;DHT22;3004;48.080;11.600;2023-02-03T21:04:55;4.50;99.90
5956;DHT22;3004;48.080;11.600;2023-02-03T21:07:32;4.50;99.90
5956;DHT22;3004;48.080;11.600;2023-02-03T21:10:27;4.50;99.90
5956;DHT22;3004;48.080;11.600;2023-02-03T21:12:56;4.50;99.90
5956;DHT22;3004;48.080;11.600;2023-02-03T21:15:32;4.50;99.90
5956;DHT22;3004;48.080;11.600;2023-02-03T21:18:27;4.60;99.90
5956;DHT22;3004;48.080;11.600;2023-02-03T21:21:01;4.60;99.90
5956;DHT22;3004;48.080;11.600;2023-02-03T21:26:31;4.60;99.90
5956;DHT22;3004;48.080;11.600;2023-02-03T21:29:03;4.60;99.90
5956;DHT22;3004;48.080;11.600;2023-02-03T21:31:31;4.60;99.90
5956;DHT22;3004;48.080;11.600;2023-02-03T21:37:40;4.60;99.90
5956;DHT22;3004;48.080;11.600;2023-02-03T21:40:20;4.70;99.90
5956;DHT22;3004;48.080;11.600;2023-02-03T21:42:53;4.70;99.90
5956;DHT22;3004;48.080;11.600;2023-02-03T21:45:44;4.70;99.90
5956;DHT22;3004;48.080;11.600;2023-02-03T21:48:33;4.70;99.90
5956;DHT22;3004;48.080;11.600;2023-02-03T21:51:14;4.70;99.90
5956;DHT22;3004;48.080;11.600;2023-02-03T21:58:01;4.70;99.90
5956;DHT22;3004;48.080;11.600;2023-02-03T22:00:39;4.70;99.90
5956;DHT22;3004;48.080;11.600;2023-02-03T22:03:32;4.70;99.90
5956;DHT22;3004;48.080;11.600;2023-02-03T22:06:15;4.70;99.90
5956;DHT22;3004;48.080;11.600;2023-02-03T22:08:44;4.60;99.90
5956;DHT22;3004;48.080;11.600;2023-02-03T22:11:15;4.50;99.90
5956;DHT22;3004;48.080;11.600;2023-02-03T22:13:48;4.40;99.90
5956;DHT22;3004;48.080;11.600;2023-02-03T22:16:45;4.40;99.90
5956;DHT22;3004;48.080;11.600;2023-02-03T22:19:26;4.50;99.90
5956;DHT22;3004;48.080;11.600;2023-02-03T22:22:07;4.50;99.90
5956;DHT22;3004;48.080;11.600;2023-02-03T22:24:48;4.40;99.90
5956;DHT22;3004;48.080;11.600;2023-02-03T22:27:21;4.50;99.90
5956;DHT22;3004;48.080;11.600;2023-02-03T22:29:54;4.50;99.90
5956;DHT22;3004;48.080;11.600;2023-02-03T22:32:22;4.50;99.90
5956;DHT22;3004;48.080;11.600;2023-02-03T22:34:52;4.50;99.90
5956;DHT22;3004;48.080;11.600;2023-02-03T22:39:55;4.50;99.90
5956;DHT22;3004;48.080;11.600;2023-02-03T22:45:01;4.50;99.90
5956;DHT22;3004;48.080;11.600;2023-02-03T22:47:47;4.60;99.90
5956;DHT22;3004;48.080;11.600;2023-02-03T22:51:06;4.50;99.90
5956;DHT22;3004;48.080;11.600;2023-02-03T22:53:51;4.50;99.90
5956;DHT22;3004;48.080;11.600;2023-02-03T22:56:32;4.50;99.90
5956;DHT22;3004;48.080;11.600;2023-02-03T23:05:21;4.40;99.90
5956;DHT22;3004;48.080;11.600;2023-02-03T23:08:02;4.70;99.90
5956;DHT22;3004;48.080;11.600;2023-02-03T23:10:31;4.40;99.90
5956;DHT22;3004;48.080;11.600;2023-02-03T23:13:37;4.40;99.90
5956;DHT22;3004;48.080;11.600;2023-02-03T23:16:18;4.30;99.90
5956;DHT22;3004;48.080;11.600;2023-02-03T23:18:55;4.20;99.90
5956;DHT22;3004;48.080;11.600;2023-02-03T23:21:37;4.20;99.90
5956;DHT22;3004;48.080;11.600;2023-02-03T23:24:15;4.20;99.90
5956;DHT22;3004;48.080;11.600;2023-02-03T23:27:02;4.10;99.90
5956;DHT22;3004;48.080;11.600;2023-02-03T23:32:51;3.40;99.90
5956;DHT22;3004;48.080;11.600;2023-02-03T23:35:21;4.10;99.90
5956;DHT22;3004;48.080;11.600;2023-02-03T23:38:07;4.00;99.90
5956;DHT22;3004;48.080;11.600;2023-02-03T23:40:48;3.80;99.90
5956;DHT22;3004;48.080;11.600;2023-02-03T23:44:29;3.90;99.90
5956;DHT22;3004;48.080;11.600;2023-02-03T23:46:28;3.90;99.90
5956;DHT22;3004;48.080;11.600;2023-02-03T23:49:04;3.90;99.90
5956;DHT22;3004;48.080;11.600;2023-02-03T23:51:47;3.90;99.90
5956;DHT22;3004;48.080;11.600;2023-02-03T23:54:19;3.80;99.90
5956;DHT22;3004;48.080;11.600;2023-02-03T23:56:48;3.90;99.90
5956;DHT22;3004;48.080;11.600;2023-02-03T23:59:26;3.80;99.90
